createdAt,value
2024-02-12T00:00:38.791Z,99685.63
2024-02-12T00:01:11.982Z,99685.63
2024-02-12T00:01:48.128Z,99695.69
2024-02-12T00:02:20.586Z,99690.66
2024-02-12T00:02:52.195Z,99694.53
2024-02-12T00:03:23.940Z,99692.59
2024-02-12T00:03:55.479Z,99696.47
2024-02-12T00:04:45.764Z,99696.47
2024-02-12T00:05:18.204Z,99697.25
2024-02-12T00:05:52.944Z,99688.72
2024-02-12T00:06:25.191Z,99705.75
2024-02-12T00:06:57.489Z,99704.97
2024-02-12T00:07:29.214Z,99699.56
2024-02-12T00:08:05.579Z,99699.56
2024-02-12T00:08:37.297Z,99698.78
2024-02-12T00:09:15.000Z,99702.25
2024-02-12T00:09:46.831Z,99707.69
2024-02-12T00:10:36.669Z,99701.47
2024-02-12T00:11:09.405Z,99707.31
2024-02-12T00:11:42.862Z,99711.94
2024-02-12T00:12:14.591Z,99705.75
2024-02-12T00:12:48.742Z,99708.47
2024-02-12T00:13:21.577Z,99703.03
2024-02-12T00:14:11.777Z,99707.69
2024-02-12T00:14:46.391Z,99707.31
2024-02-12T00:15:22.478Z,99704.97
2024-02-12T00:15:54.623Z,99704.59
2024-02-12T00:16:27.427Z,99711.94
2024-02-12T00:16:59.109Z,99710.78
2024-02-12T00:17:31.280Z,99708.09
2024-02-12T00:18:03.033Z,99705.38
2024-02-12T00:18:34.740Z,99707.31
2024-02-12T00:19:06.567Z,99712.72
2024-02-12T00:19:39.004Z,99709.22
2024-02-12T00:20:13.344Z,99713.09
2024-02-12T00:20:45.530Z,99713.50
2024-02-12T00:21:19.525Z,99711.94
2024-02-12T00:21:51.138Z,99710.78
2024-02-12T00:22:41.388Z,99707.69
2024-02-12T00:23:13.033Z,99716.97
2024-02-12T00:23:46.142Z,99718.91
2024-02-12T00:24:18.336Z,99711.94
2024-02-12T00:24:53.078Z,99716.97
2024-02-12T00:25:26.796Z,99718.91
2024-02-12T00:25:58.337Z,99718.91
2024-02-12T00:26:30.074Z,99715.81
2024-02-12T00:27:04.564Z,99718.50
2024-02-12T00:27:36.583Z,99725.06
2024-02-12T00:28:08.794Z,99721.63
2024-02-12T00:28:40.362Z,99731.69
2024-02-12T00:29:14.440Z,99723.56
2024-02-12T00:29:47.417Z,99722.38
2024-02-12T00:30:20.469Z,99724.31
2024-02-12T00:30:52.158Z,99726.25
2024-02-12T00:31:24.147Z,99727.03
2024-02-12T00:31:59.508Z,99720.84
2024-02-12T00:32:31.368Z,99718.91
2024-02-12T00:33:07.939Z,99718.50
2024-02-12T00:33:41.291Z,99731.28
2024-02-12T00:34:14.058Z,99728.56
2024-02-12T00:34:45.911Z,99734.75
2024-02-12T00:35:17.712Z,99722.38
2024-02-12T00:35:49.822Z,99737.09
2024-02-12T00:36:22.176Z,99731.28
2024-02-12T00:37:14.338Z,99732.84
2024-02-12T00:37:45.942Z,99734.38
2024-02-12T00:38:18.383Z,99738.25
2024-02-12T00:38:51.667Z,99739.81
2024-02-12T00:39:24.841Z,99746.00
2024-02-12T00:39:59.418Z,99746.78
2024-02-12T00:40:49.368Z,99742.13
2024-02-12T00:41:22.343Z,99745.63
2024-02-12T00:41:54.419Z,99742.91
2024-02-12T00:43:35.068Z,99739.06
2024-02-12T00:44:06.556Z,99747.19
2024-02-12T00:44:38.798Z,99742.91
2024-02-12T00:45:12.041Z,99749.13
2024-02-12T00:45:43.712Z,99751.81
2024-02-12T00:46:16.457Z,99758.00
2024-02-12T00:46:53.613Z,99748.34
2024-02-12T00:47:27.135Z,99758.00
2024-02-12T00:47:59.292Z,99746.78
2024-02-12T00:48:33.290Z,99748.34
2024-02-12T00:49:04.886Z,99753.75
2024-02-12T00:49:36.424Z,99764.59
2024-02-12T00:50:08.865Z,99761.88
2024-02-12T00:50:40.745Z,99757.25
2024-02-12T00:51:13.561Z,99751.03
2024-02-12T00:51:45.151Z,99751.81
2024-02-12T00:52:36.902Z,99750.66
2024-02-12T00:53:09.249Z,99756.09
2024-02-12T00:53:41.604Z,99755.31
2024-02-12T00:54:16.052Z,99762.28
2024-02-12T00:54:47.578Z,99763.44
2024-02-12T00:55:19.630Z,99764.59
2024-02-12T00:55:51.109Z,99759.16
2024-02-12T00:56:23.429Z,99759.94
2024-02-12T00:56:54.897Z,99765.38
2024-02-12T00:57:26.941Z,99760.72
2024-02-12T00:57:59.105Z,99763.44
2024-02-12T00:58:32.332Z,99764.59
2024-02-12T00:59:04.512Z,99766.91
2024-02-12T00:59:42.775Z,99766.13
2024-02-12T01:00:15.776Z,99768.84
2024-02-12T01:00:47.348Z,99766.13
2024-02-12T01:01:18.834Z,99775.03
2024-02-12T01:01:50.552Z,99770.78
2024-02-12T01:02:22.633Z,99775.41
2024-02-12T01:02:55.246Z,99770.78
2024-02-12T01:03:27.878Z,99775.03
2024-02-12T01:04:00.408Z,99776.19
2024-02-12T01:04:38.171Z,99783.16
2024-02-12T01:05:09.920Z,99780.06
2024-02-12T01:05:42.873Z,99778.13
2024-02-12T01:06:14.454Z,99778.13
2024-02-12T01:06:46.305Z,99780.06
2024-02-12T01:07:18.450Z,99782.00
2024-02-12T01:07:51.108Z,99775.41
2024-02-12T01:08:23.091Z,99773.88
2024-02-12T01:08:54.707Z,99780.84
2024-02-12T01:09:27.301Z,99773.88
2024-02-12T01:09:58.910Z,99780.06
2024-02-12T01:10:30.394Z,99778.91
2024-02-12T01:11:02.170Z,99787.81
2024-02-12T01:12:25.283Z,99780.84
2024-02-12T01:12:57.429Z,99780.84
2024-02-12T01:13:47.885Z,99773.88
2024-02-12T01:14:20.805Z,99778.13
2024-02-12T01:14:52.561Z,99783.53
2024-02-12T01:15:25.702Z,99779.28
2024-02-12T01:15:57.207Z,99783.53
2024-02-12T01:16:47.224Z,99784.69
2024-02-12T01:17:18.731Z,99786.25
2024-02-12T01:17:51.262Z,99777.72
2024-02-12T01:18:25.548Z,99785.84
2024-02-12T01:19:46.473Z,99791.63
2024-02-12T01:20:18.652Z,99787.00
2024-02-12T01:20:52.917Z,99792.41
2024-02-12T01:21:24.323Z,99790.84
2024-02-12T01:22:44.530Z,99781.59
2024-02-12T01:23:17.137Z,99786.22
2024-02-12T01:23:48.848Z,99787.00
2024-02-12T01:24:20.462Z,99789.72
2024-02-12T01:24:55.928Z,99785.44
2024-02-12T01:25:27.688Z,99788.56
2024-02-12T01:26:00.449Z,99795.91
2024-02-12T01:26:38.559Z,99793.19
2024-02-12T01:27:12.964Z,99789.72
2024-02-12T01:27:44.421Z,99792.41
2024-02-12T01:28:16.585Z,99798.97
2024-02-12T01:28:48.400Z,99794.34
2024-02-12T01:29:19.893Z,99791.63
2024-02-12T01:29:51.301Z,99798.97
2024-02-12T01:30:23.474Z,99796.28
2024-02-12T01:30:54.947Z,99792.03
2024-02-12T01:31:26.361Z,99794.75
2024-02-12T01:31:57.926Z,99795.50
2024-02-12T01:32:30.261Z,99796.28
2024-02-12T01:33:03.452Z,99797.47
2024-02-12T01:33:35.011Z,99804.41
2024-02-12T01:34:06.621Z,99799.75
2024-02-12T01:34:38.706Z,99801.69
2024-02-12T01:35:12.205Z,99798.97
2024-02-12T01:36:02.596Z,99800.53
2024-02-12T01:36:34.595Z,99802.47
2024-02-12T01:37:06.012Z,99796.28
2024-02-12T01:37:37.514Z,99806.75
2024-02-12T01:38:10.593Z,99797.06
2024-02-12T01:38:42.417Z,99802.47
2024-02-12T01:39:13.828Z,99807.88
2024-02-12T01:39:45.345Z,99801.31
2024-02-12T01:41:07.359Z,99809.03
2024-02-12T01:41:38.879Z,99800.16
2024-02-12T01:42:14.016Z,99804.03
2024-02-12T01:42:45.576Z,99804.03
2024-02-12T01:43:33.189Z,99804.03
2024-02-12T01:44:05.475Z,99808.28
2024-02-12T01:44:37.113Z,99814.84
2024-02-12T01:45:16.579Z,99809.44
2024-02-12T01:45:48.519Z,99806.34
2024-02-12T01:46:38.742Z,99811.75
2024-02-12T01:47:28.925Z,99817.94
2024-02-12T01:48:03.633Z,99807.09
2024-02-12T01:48:37.396Z,99815.22
2024-02-12T01:49:11.577Z,99807.88
2024-02-12T01:49:44.772Z,99816.41
2024-02-12T01:50:19.553Z,99818.72
2024-02-12T01:50:51.317Z,99817.16
2024-02-12T01:51:23.019Z,99814.47
2024-02-12T01:51:55.500Z,99817.94
2024-02-12T01:52:30.421Z,99822.22
2024-02-12T01:53:03.242Z,99817.94
2024-02-12T01:53:36.704Z,99817.94
2024-02-12T01:54:09.148Z,99823.34
2024-02-12T01:54:42.104Z,99820.66
2024-02-12T01:55:13.554Z,99822.59
2024-02-12T01:55:46.779Z,99820.66
2024-02-12T01:56:18.363Z,99818.34
2024-02-12T01:56:50.423Z,99822.59
2024-02-12T01:57:23.436Z,99827.25
2024-02-12T01:57:55.635Z,99822.59
2024-02-12T01:58:27.244Z,99829.56
2024-02-12T01:59:01.361Z,99823.75
2024-02-12T01:59:33.624Z,99825.28
2024-02-12T02:00:06.475Z,99825.69
2024-02-12T02:00:38.741Z,99824.53
2024-02-12T02:01:14.383Z,99822.59
2024-02-12T02:01:46.736Z,99827.25
2024-02-12T02:02:18.284Z,99823.75
2024-02-12T02:02:50.885Z,99824.91
2024-02-12T02:03:23.260Z,99829.97
2024-02-12T02:03:54.816Z,99824.91
2024-02-12T02:04:28.113Z,99824.53
2024-02-12T02:05:02.071Z,99820.28
2024-02-12T02:05:34.515Z,99821.06
2024-02-12T02:06:08.483Z,99825.28
2024-02-12T02:06:40.851Z,99824.53
2024-02-12T02:07:22.722Z,99828.00
2024-02-12T02:07:58.107Z,99821.84
2024-02-12T02:08:39.782Z,99829.56
2024-02-12T02:09:12.292Z,99828.00
2024-02-12T02:09:44.051Z,99825.28
2024-02-12T02:10:16.302Z,99824.53
2024-02-12T02:10:50.987Z,99828.00
2024-02-12T02:11:22.597Z,99832.66
2024-02-12T02:11:54.127Z,99822.59
2024-02-12T02:12:28.351Z,99830.72
2024-02-12T02:13:01.026Z,99825.69
2024-02-12T02:13:39.833Z,99828.00
2024-02-12T02:14:12.556Z,99824.53
2024-02-12T02:15:03.822Z,99824.53
2024-02-12T02:15:36.116Z,99833.41
2024-02-12T02:16:07.587Z,99826.84
2024-02-12T02:16:40.115Z,99828.78
2024-02-12T02:17:11.621Z,99823.34
2024-02-12T02:17:43.178Z,99825.69
2024-02-12T02:18:15.517Z,99836.13
2024-02-12T02:18:47.927Z,99829.56
2024-02-12T02:19:19.584Z,99831.47
2024-02-12T02:19:51.243Z,99830.34
2024-02-12T02:20:27.200Z,99833.03
2024-02-12T02:20:59.099Z,99833.81
2024-02-12T02:21:30.602Z,99833.81
2024-02-12T02:22:05.003Z,99831.88
2024-02-12T02:22:36.508Z,99831.88
2024-02-12T02:23:08.074Z,99831.88
2024-02-12T02:23:43.018Z,99834.59
2024-02-12T02:24:15.735Z,99832.66
2024-02-12T02:24:47.206Z,99838.09
2024-02-12T02:25:21.283Z,99835.38
2024-02-12T02:25:52.955Z,99830.75
2024-02-12T02:26:25.002Z,99833.81
2024-02-12T02:26:56.806Z,99833.44
2024-02-12T02:27:28.818Z,99838.09
2024-02-12T02:28:00.586Z,99832.66
2024-02-12T02:28:32.093Z,99834.59
2024-02-12T02:29:22.736Z,99837.72
2024-02-12T02:29:54.282Z,99832.66
2024-02-12T02:30:25.780Z,99838.88
2024-02-12T02:30:58.170Z,99834.97
2024-02-12T02:31:29.642Z,99827.63
2024-02-12T02:32:19.730Z,99838.47
2024-02-12T02:32:51.734Z,99838.47
2024-02-12T02:33:23.507Z,99838.09
2024-02-12T02:35:05.104Z,99835.75
2024-02-12T02:35:37.616Z,99839.63
2024-02-12T02:36:09.205Z,99836.53
2024-02-12T02:36:47.853Z,99844.66
2024-02-12T02:37:19.833Z,99840.00
2024-02-12T02:38:40.608Z,99841.16
2024-02-12T02:39:12.619Z,99850.44
2024-02-12T02:39:44.168Z,99846.94
2024-02-12T02:40:15.731Z,99846.94
2024-02-12T02:40:47.184Z,99836.50
2024-02-12T02:41:20.821Z,99849.66
2024-02-12T02:41:53.052Z,99847.69
2024-02-12T02:42:26.508Z,99846.91
2024-02-12T02:42:58.436Z,99847.28
2024-02-12T02:43:30.028Z,99848.44
2024-02-12T02:44:05.274Z,99850.34
2024-02-12T02:44:36.827Z,99846.09
2024-02-12T02:45:26.826Z,99848.84
2024-02-12T02:46:00.335Z,99850.34
2024-02-12T02:46:31.959Z,99856.56
2024-02-12T02:47:05.522Z,99858.47
2024-02-12T02:47:38.585Z,99857.72
2024-02-12T02:48:59.748Z,99853.81
2024-02-12T02:49:32.610Z,99856.09
2024-02-12T02:50:06.194Z,99862.31
2024-02-12T02:50:37.907Z,99859.59
2024-02-12T02:51:10.785Z,99858.03
2024-02-12T02:51:42.522Z,99856.09
2024-02-12T02:52:14.290Z,99859.59
2024-02-12T02:52:45.883Z,99857.25
2024-02-12T02:53:17.537Z,99858.03
2024-02-12T02:54:09.287Z,99859.59
2024-02-12T02:54:44.065Z,99859.97
2024-02-12T02:55:34.569Z,99863.44
2024-02-12T02:56:06.674Z,99858.41
2024-02-12T02:56:38.165Z,99861.13
2024-02-12T02:57:09.631Z,99860.34
2024-02-12T02:57:41.146Z,99864.97
2024-02-12T02:58:12.690Z,99862.25
2024-02-12T02:58:44.134Z,99865.75
2024-02-12T02:59:15.599Z,99859.19
2024-02-12T02:59:48.082Z,99856.47
2024-02-12T03:00:19.737Z,99859.19
2024-02-12T03:00:54.526Z,99864.59
2024-02-12T03:01:26.149Z,99862.66
2024-02-12T03:02:16.064Z,99861.91
2024-02-12T03:02:51.219Z,99859.19
2024-02-12T03:03:23.839Z,99864.59
2024-02-12T03:04:13.917Z,99864.59
2024-02-12T03:04:45.349Z,99862.25
2024-02-12T03:05:17.191Z,99870.78
2024-02-12T03:05:50.460Z,99865.38
2024-02-12T03:06:22.832Z,99857.25
2024-02-12T03:06:54.330Z,99862.66
2024-02-12T03:07:25.841Z,99860.31
2024-02-12T03:07:59.813Z,99862.66
2024-02-12T03:08:33.726Z,99863.03
2024-02-12T03:09:05.158Z,99861.47
2024-02-12T03:09:37.296Z,99860.69
2024-02-12T03:10:08.862Z,99858.00
2024-02-12T03:11:30.278Z,99861.06
2024-02-12T03:12:20.557Z,99857.22
2024-02-12T03:13:11.130Z,99863.41
2024-02-12T03:13:43.130Z,99859.88
2024-02-12T03:14:16.030Z,99858.31
2024-02-12T03:14:48.150Z,99859.47
2024-02-12T03:15:20.296Z,99856.34
2024-02-12T03:15:51.804Z,99861.75
2024-02-12T03:16:24.096Z,99865.25
2024-02-12T03:16:56.858Z,99860.19
2024-02-12T03:17:28.516Z,99854.78
2024-02-12T03:18:00.457Z,99861.34
2024-02-12T03:18:32.023Z,99864.06
2024-02-12T03:19:04.096Z,99856.31
2024-02-12T03:19:36.881Z,99864.06
2024-02-12T03:20:12.101Z,99868.31
2024-02-12T03:20:43.639Z,99865.97
2024-02-12T03:21:22.559Z,99868.69
2024-02-12T03:21:54.014Z,99866.75
2024-02-12T03:22:43.852Z,99869.84
2024-02-12T03:23:15.365Z,99871.78
2024-02-12T03:23:48.670Z,99876.41
2024-02-12T03:24:21.197Z,99870.22
2024-02-12T03:24:57.448Z,99868.66
2024-02-12T03:25:28.958Z,99872.13
2024-02-12T03:26:00.991Z,99872.13
2024-02-12T03:26:50.844Z,99870.22
2024-02-12T03:27:22.256Z,99871.34
2024-02-12T03:27:53.643Z,99868.66
2024-02-12T03:28:44.469Z,99868.66
2024-02-12T03:29:16.123Z,99865.16
2024-02-12T03:29:50.372Z,99867.09
2024-02-12T03:30:23.785Z,99869.41
2024-02-12T03:30:55.235Z,99868.25
2024-02-12T03:31:26.710Z,99869.41
2024-02-12T03:31:58.412Z,99867.84
2024-02-12T03:32:30.770Z,99866.28
2024-02-12T03:33:04.128Z,99865.50
2024-02-12T03:33:54.436Z,99863.59
2024-02-12T03:34:30.440Z,99870.16
2024-02-12T03:35:02.004Z,99868.59
2024-02-12T03:35:33.569Z,99872.44
2024-02-12T03:36:06.226Z,99867.03
2024-02-12T03:36:44.386Z,99862.75
2024-02-12T03:37:20.135Z,99868.19
2024-02-12T03:37:51.621Z,99866.25
2024-02-12T03:38:26.018Z,99868.19
2024-02-12T03:38:59.231Z,99865.06
2024-02-12T03:39:30.891Z,99864.69
2024-02-12T03:41:19.868Z,99877.03
2024-02-12T03:41:52.464Z,99873.91
2024-02-12T03:42:27.149Z,99869.66
2024-02-12T03:42:58.639Z,99872.34
2024-02-12T03:43:30.166Z,99872.34
2024-02-12T03:44:01.630Z,99873.09
2024-02-12T03:44:35.288Z,99875.78
2024-02-12T03:45:07.295Z,99871.94
2024-02-12T03:45:38.784Z,99875.00
2024-02-12T03:46:18.752Z,99866.13
2024-02-12T03:46:53.779Z,99864.56
2024-02-12T03:47:39.237Z,99871.91
2024-02-12T03:48:29.842Z,99873.06
2024-02-12T03:49:20.073Z,99874.22
2024-02-12T03:50:10.822Z,99870.72
2024-02-12T03:51:01.089Z,99886.56
2024-02-12T03:51:51.782Z,99895.03
2024-02-12T03:52:41.732Z,99895.75
2024-02-12T03:53:31.905Z,99907.72
2024-02-12T03:54:22.114Z,99911.56
2024-02-12T03:55:12.069Z,99903.81
2024-02-12T03:56:01.991Z,99906.50
2024-02-12T03:56:52.369Z,99907.66
2024-02-12T03:57:42.205Z,99911.50
2024-02-12T03:58:32.290Z,99914.22
2024-02-12T03:59:22.260Z,99915.34
2024-02-12T03:59:54.506Z,99914.56
2024-02-12T04:00:26.162Z,99904.47
2024-02-12T04:00:57.765Z,99907.97
2024-02-12T04:01:29.322Z,99911.06
2024-02-12T04:02:00.876Z,99914.56
2024-02-12T04:02:32.632Z,99909.50
2024-02-12T04:03:06.665Z,99913.34
2024-02-12T04:03:38.306Z,99908.72
2024-02-12T04:04:11.526Z,99914.13
2024-02-12T04:04:43.475Z,99915.28
2024-02-12T04:05:15.650Z,99916.06
2024-02-12T04:05:47.422Z,99915.28
2024-02-12T04:06:18.932Z,99917.56
2024-02-12T04:06:50.385Z,99912.16
2024-02-12T04:07:26.038Z,99917.56
2024-02-12T04:07:58.106Z,99922.19
2024-02-12T04:08:29.712Z,99914.09
2024-02-12T04:09:01.200Z,99924.13
2024-02-12T04:09:33.726Z,99922.19
2024-02-12T04:10:07.739Z,99926.03
2024-02-12T04:10:39.269Z,99925.28
2024-02-12T04:11:10.964Z,99925.28
2024-02-12T04:11:43.333Z,99919.84
2024-02-12T04:12:15.028Z,99923.72
2024-02-12T04:12:48.972Z,99924.06
2024-02-12T04:13:20.502Z,99919.03
2024-02-12T04:13:55.778Z,99920.59
2024-02-12T04:14:46.016Z,99925.22
2024-02-12T04:15:17.598Z,99929.84
2024-02-12T04:15:50.778Z,99928.28
2024-02-12T04:16:23.800Z,99920.53
2024-02-12T04:16:55.891Z,99926.72
2024-02-12T04:17:29.594Z,99922.47
2024-02-12T04:18:01.258Z,99921.31
2024-02-12T04:18:33.601Z,99925.59
2024-02-12T04:19:05.138Z,99926.72
2024-02-12T04:19:37.664Z,99927.88
2024-02-12T04:20:11.967Z,99925.16
2024-02-12T04:20:44.488Z,99924.38
2024-02-12T04:22:11.051Z,99928.66
2024-02-12T04:22:42.791Z,99927.88
2024-02-12T04:23:16.620Z,99920.53
2024-02-12T04:23:50.662Z,99924.00
2024-02-12T04:24:24.483Z,99929.06
2024-02-12T04:24:55.886Z,99919.03
2024-02-12T04:25:46.705Z,99924.44
2024-02-12T04:26:19.287Z,99923.28
2024-02-12T04:26:50.945Z,99924.44
2024-02-12T04:27:23.813Z,99923.66
2024-02-12T04:28:01.773Z,99917.47
2024-02-12T04:28:33.966Z,99922.88
2024-02-12T04:29:08.846Z,99923.25
2024-02-12T04:29:41.791Z,99922.47
2024-02-12T04:30:13.557Z,99929.00
2024-02-12T04:30:45.852Z,99919.34
2024-02-12T04:31:17.370Z,99924.38
2024-02-12T04:31:49.237Z,99927.09
2024-02-12T04:32:20.856Z,99925.88
2024-02-12T04:32:52.719Z,99932.84
2024-02-12T04:33:24.334Z,99927.81
2024-02-12T04:33:55.925Z,99935.94
2024-02-12T04:34:27.569Z,99926.25
2024-02-12T04:34:59.080Z,99930.16
2024-02-12T04:35:31.415Z,99934.00
2024-02-12T04:36:03.138Z,99929.75
2024-02-12T04:37:35.732Z,99929.75
2024-02-12T04:38:07.801Z,99937.84
2024-02-12T04:38:39.312Z,99935.16
2024-02-12T04:39:15.191Z,99941.72
2024-02-12T04:39:49.067Z,99944.44
2024-02-12T04:40:20.531Z,99949.84
2024-02-12T04:40:52.015Z,99942.88
2024-02-12T04:41:25.312Z,99949.41
2024-02-12T04:41:56.721Z,99946.72
2024-02-12T04:43:17.191Z,99956.38
2024-02-12T04:44:07.541Z,99956.75
2024-02-12T04:44:39.061Z,99964.88
2024-02-12T04:45:11.444Z,99959.47
2024-02-12T04:45:42.998Z,99965.66
2024-02-12T04:46:14.617Z,99957.91
2024-02-12T04:47:05.635Z,99966.00
2024-02-12T04:47:38.292Z,99964.44
2024-02-12T04:48:15.387Z,99962.88
2024-02-12T04:48:47.185Z,99966.38
2024-02-12T04:49:21.005Z,99962.09
2024-02-12T04:49:53.288Z,99968.66
2024-02-12T04:50:24.904Z,99965.94
2024-02-12T04:50:56.599Z,99968.66
2024-02-12T04:51:29.820Z,99967.09
2024-02-12T04:52:01.770Z,99960.53
2024-02-12T04:53:22.656Z,99966.72
2024-02-12T04:53:54.236Z,99965.59
2024-02-12T04:54:26.483Z,99965.94
2024-02-12T04:54:58.398Z,99957.06
2024-02-12T04:55:29.902Z,99964.38
2024-02-12T04:56:01.991Z,99967.09
2024-02-12T04:56:33.547Z,99960.53
2024-02-12T04:57:05.273Z,99963.25
2024-02-12T04:57:37.793Z,99963.25
2024-02-12T04:58:09.361Z,99957.84
2024-02-12T04:58:40.792Z,99971.34
2024-02-12T05:00:02.441Z,99968.66
2024-02-12T05:00:35.128Z,99972.13
2024-02-12T05:01:08.937Z,99972.13
2024-02-12T05:01:41.420Z,99969.44
2024-02-12T05:02:13.063Z,99970.22
2024-02-12T05:02:44.594Z,99972.13
2024-02-12T05:03:17.247Z,99965.94
2024-02-12T05:03:48.708Z,99972.13
2024-02-12T05:04:20.787Z,99974.06
2024-02-12T05:04:52.434Z,99972.91
2024-02-12T05:05:24.266Z,99972.13
2024-02-12T05:06:17.898Z,99967.94
2024-02-12T05:07:08.611Z,99967.94
2024-02-12T05:07:40.344Z,99972.97
2024-02-12T05:08:11.898Z,99972.19
2024-02-12T05:08:45.480Z,99971.41
2024-02-12T05:09:17.022Z,99971.41
2024-02-12T05:10:07.589Z,99971.41
2024-02-12T05:10:39.087Z,99971.84
2024-02-12T05:11:10.723Z,99978.38
2024-02-12T05:11:42.296Z,99975.69
2024-02-12T05:12:16.533Z,99970.28
2024-02-12T05:12:51.923Z,99976.03
2024-02-12T05:13:25.837Z,99977.59
2024-02-12T05:13:57.394Z,99976.03
2024-02-12T05:14:29.300Z,99979.53
2024-02-12T05:15:00.941Z,99978.75
2024-02-12T05:15:53.176Z,99981.09
2024-02-12T05:16:31.925Z,99973.75
2024-02-12T05:17:06.810Z,99983.00
2024-02-12T05:18:07.868Z,99979.94
2024-02-12T05:18:59.537Z,99976.47
2024-02-12T05:19:49.366Z,99979.94
2024-02-12T05:20:39.529Z,99983.00
2024-02-12T05:21:32.537Z,99972.19
2024-02-12T05:22:22.569Z,99978.75
2024-02-12T05:22:53.977Z,99974.47
2024-02-12T05:23:26.259Z,99979.09
2024-02-12T05:23:58.973Z,99978.31
2024-02-12T05:25:20.256Z,99979.09
2024-02-12T05:25:51.720Z,99972.91
2024-02-12T05:26:23.277Z,99975.63
2024-02-12T05:26:56.550Z,99972.91
2024-02-12T05:27:29.025Z,99977.53
2024-02-12T05:28:53.901Z,99965.22
2024-02-12T05:29:26.164Z,99971.78
2024-02-12T05:29:57.709Z,99971.78
2024-02-12T05:30:29.179Z,99969.84
2024-02-12T05:31:00.584Z,99973.34
2024-02-12T05:31:32.104Z,99969.06
2024-02-12T05:32:03.744Z,99970.63
2024-02-12T05:32:35.573Z,99972.56
2024-02-12T05:33:11.113Z,99981.44
2024-02-12T05:33:42.879Z,99975.25
2024-02-12T05:34:34.240Z,99976.81
2024-02-12T05:35:06.412Z,99963.31
2024-02-12T05:35:38.082Z,99977.59
2024-02-12T05:36:10.976Z,99966.00
2024-02-12T05:36:43.162Z,99966.78
2024-02-12T05:37:15.202Z,99973.34
2024-02-12T05:37:46.796Z,99976.81
2024-02-12T05:38:18.370Z,99970.63
2024-02-12T05:38:51.638Z,99973.34
2024-02-12T05:39:23.733Z,99965.22
2024-02-12T05:40:44.229Z,99967.56
2024-02-12T05:41:16.638Z,99980.72
2024-02-12T05:41:49.153Z,99975.69
2024-02-12T05:42:20.602Z,99975.69
2024-02-12T05:42:52.058Z,99972.97
2024-02-12T05:43:24.639Z,99978.03
2024-02-12T05:43:56.143Z,99972.97
2024-02-12T05:44:28.576Z,99977.25
2024-02-12T05:45:00.091Z,99978.81
2024-02-12T05:45:32.034Z,99976.88
2024-02-12T05:46:05.459Z,99976.09
2024-02-12T05:46:37.722Z,99974.94
2024-02-12T05:47:09.174Z,99976.88
2024-02-12T05:47:42.057Z,99985.75
2024-02-12T05:48:13.604Z,99982.28
2024-02-12T05:48:45.177Z,99973.41
2024-02-12T05:49:23.159Z,99978.41
2024-02-12T05:49:56.025Z,99978.41
2024-02-12T05:50:28.007Z,99980.34
2024-02-12T05:51:00.191Z,99982.28
2024-02-12T05:51:32.665Z,99970.69
2024-02-12T05:52:04.982Z,99982.28
2024-02-12T05:52:38.668Z,99986.91
2024-02-12T05:53:11.070Z,99986.91
2024-02-12T05:53:42.848Z,99985.75
2024-02-12T05:54:14.303Z,99976.09
2024-02-12T05:54:45.742Z,99981.50
2024-02-12T05:55:17.767Z,99983.44
2024-02-12T05:55:49.236Z,99990.41
2024-02-12T05:56:22.291Z,99983.44
2024-02-12T05:56:54.268Z,99982.28
2024-02-12T05:57:44.113Z,99985.75
2024-02-12T05:58:15.552Z,99982.28
2024-02-12T05:58:47.089Z,99988.84
2024-02-12T05:59:18.514Z,99995.38
2024-02-12T05:59:50.121Z,99985.72
2024-02-12T06:00:21.602Z,99993.47
2024-02-12T06:00:53.216Z,99996.16
2024-02-12T06:01:25.770Z,99989.97
2024-02-12T06:01:58.394Z,99991.53
2024-02-12T06:02:29.994Z,99988.44
2024-02-12T06:03:20.414Z,99991.94
2024-02-12T06:03:52.377Z,99994.63
2024-02-12T06:04:23.883Z,99993.09
2024-02-12T06:04:55.498Z,99995.03
2024-02-12T06:05:27.412Z,99993.84
2024-02-12T06:05:59.706Z,99995.41
2024-02-12T06:06:32.162Z,99996.19
2024-02-12T06:07:04.829Z,99997.34
2024-02-12T06:07:36.764Z,100001.97
2024-02-12T06:08:09.205Z,100003.53
2024-02-12T06:08:40.930Z,100001.63
2024-02-12T06:10:21.131Z,100002.38
2024-02-12T06:10:52.580Z,100001.97
2024-02-12T06:11:24.097Z,99999.25
2024-02-12T06:11:55.598Z,99999.25
2024-02-12T06:12:27.061Z,100001.97
2024-02-12T06:12:59.593Z,100006.25
2024-02-12T06:13:31.171Z,99999.25
2024-02-12T06:14:02.702Z,100000.81
2024-02-12T06:14:34.468Z,100000.81
2024-02-12T06:15:06.451Z,99998.91
2024-02-12T06:15:37.980Z,100001.63
2024-02-12T06:16:09.517Z,100003.16
2024-02-12T06:16:41.130Z,100007.81
2024-02-12T06:17:12.606Z,100001.63
2024-02-12T06:17:44.200Z,100001.25
2024-02-12T06:18:16.881Z,100009.38
2024-02-12T06:18:48.390Z,100009.38
2024-02-12T06:19:19.953Z,100014.00
2024-02-12T06:19:52.313Z,100005.88
2024-02-12T06:20:23.929Z,100005.88
2024-02-12T06:20:56.358Z,100007.03
2024-02-12T06:21:28.183Z,100010.88
2024-02-12T06:21:59.886Z,100012.44
2024-02-12T06:22:31.396Z,100017.84
2024-02-12T06:23:03.841Z,100009.38
2024-02-12T06:23:35.402Z,100010.50
2024-02-12T06:24:07.147Z,100020.19
2024-02-12T06:24:38.649Z,100016.69
2024-02-12T06:25:10.800Z,100015.91
2024-02-12T06:25:43.580Z,100015.56
2024-02-12T06:26:37.018Z,100010.94
2024-02-12T06:27:09.191Z,100015.56
2024-02-12T06:27:40.682Z,100010.16
2024-02-12T06:28:12.168Z,100009.38
2024-02-12T06:28:44.134Z,100014.41
2024-02-12T06:29:15.774Z,100015.56
2024-02-12T06:29:47.266Z,100012.06
2024-02-12T06:30:18.890Z,100017.13
2024-02-12T06:30:50.604Z,100018.69
2024-02-12T06:31:22.198Z,100014.41
2024-02-12T06:31:54.012Z,100015.97
2024-02-12T06:32:25.492Z,100013.28
2024-02-12T06:32:57.191Z,100017.53
2024-02-12T06:33:28.895Z,100022.94
2024-02-12T06:34:00.657Z,100022.94
2024-02-12T06:34:34.688Z,100023.72
2024-02-12T06:35:07.476Z,100031.06
2024-02-12T06:35:39.059Z,100028.00
2024-02-12T06:36:10.678Z,100030.69
2024-02-12T06:36:42.441Z,100034.19
2024-02-12T06:37:14.361Z,100025.28
2024-02-12T06:37:48.509Z,100031.06
2024-02-12T06:38:20.044Z,100036.47
2024-02-12T06:38:51.497Z,100028.00
2024-02-12T06:39:22.991Z,100022.94
2024-02-12T06:39:54.514Z,100031.84
2024-02-12T06:40:44.356Z,100029.91
2024-02-12T06:41:16.270Z,100030.69
2024-02-12T06:41:47.824Z,100028.00
2024-02-12T06:42:19.339Z,100041.16
2024-02-12T06:42:50.789Z,100033.41
2024-02-12T06:43:22.554Z,100034.97
2024-02-12T06:43:53.999Z,100029.56
2024-02-12T06:44:25.492Z,100026.06
2024-02-12T06:44:56.909Z,100034.97
2024-02-12T06:45:29.296Z,100038.81
2024-02-12T06:46:00.825Z,100039.59
2024-02-12T06:46:32.339Z,100040.38
2024-02-12T06:47:04.731Z,100031.06
2024-02-12T06:47:36.302Z,100039.53
2024-02-12T06:48:26.682Z,100039.59
2024-02-12T06:48:58.370Z,100043.44
2024-02-12T06:49:29.957Z,100040.75
2024-02-12T06:50:01.420Z,100034.91
2024-02-12T06:50:33.104Z,100035.31
2024-02-12T06:51:10.179Z,100042.66
2024-02-12T06:51:42.111Z,100040.75
2024-02-12T06:52:13.622Z,100043.44
2024-02-12T06:52:45.153Z,100051.19
2024-02-12T06:53:16.771Z,100044.22
2024-02-12T06:54:06.948Z,100046.56
2024-02-12T06:54:38.402Z,100045.00
2024-02-12T06:55:11.356Z,100051.19
2024-02-12T06:55:42.854Z,100051.19
2024-02-12T06:56:14.371Z,100051.19
2024-02-12T06:56:45.866Z,100039.97